Gas Snapper — V7TZ3 — position and weather

sailwx.info

Track history (hours):
 
Tides and Currents Weather Stations Pressure Air Temp Water Temp Dewpoint Dewpoint Depression Visibility Wind Speed Wind Dir Waves Ship Positions

Gas Snapper

Last reported at 2014-Aug-22 08:33 UTC. Time now 2014-Aug-22 09:58 UTC.
Position N 37°30' E 010°41'.

Length 174 m; draft 7.3 m.

Type: Ship (hazmat cat D). MMSI: 538003911.

Date/timePositionNaut miles runAvg speedWind from/ knotsBaromVisibWave heightAir tempDewpointWater temp
2014-Aug-22 08:33N 37°30' E 010°41'1716.7
2014-Aug-22 07:33N 37°34' E 010°21'1816.8
2014-Aug-22 06:30N 37°34' E 009°58'1616.7
2014-Aug-22 05:34N 37°35' E 009°39'1717.0
2014-Aug-22 04:34N 37°36' E 009°17'1716.9
2014-Aug-22 03:32N 37°37' E 008°56'1716.6
2014-Aug-22 02:31N 37°38' E 008°34'21116.2
2014-Aug-21 13:29N 37°08' E 004°12'3316.5
2014-Aug-21 11:31N 37°03' E 003°31'2016.7
2014-Aug-21 10:18N 36°60' E 003°06'1216.1
2014-Aug-21 09:33N 36°59' E 002°51'1515.3
2014-Aug-21 08:33N 36°57' E 002°32'3316.2
2014-Aug-21 06:33N 36°51' E 001°52'1716.8
2014-Aug-21 05:31N 36°49' E 001°31'1616.9
2014-Aug-21 04:33N 36°46' E 001°10'1716.6
2014-Aug-21 03:33N 36°44' E 000°50'1616.5
2014-Aug-21 02:33N 36°41' E 000°30'1717.3
2014-Aug-21 01:33N 36°38' E 000°09'1817.8
2014-Aug-21 00:33N 36°36' W 000°14'1717.4
2014-Aug-20 23:34N 36°34' W 000°35'1717.0
2014-Aug-20 22:34N 36°31' W 000°56'1716.9
2014-Aug-20 21:33N 36°28' W 001°17'1816.4
2014-Aug-20 20:29N 36°25' W 001°38'1616.6
2014-Aug-20 19:32N 36°23' W 001°58'1616.1
2014-Aug-20 18:34N 36°21' W 002°17'1616.4
2014-Aug-20 17:33N 36°19' W 002°37'12917.6
2014-Aug-20 10:16N 35°59' W 005°15'20416.1
2014-Aug-19 21:33N 36°34' W 009°25'1716.8
2014-Aug-19 20:33N 36°46' W 009°38'1816.7
2014-Aug-19 19:29N 37°03' W 009°44'1616.7
2014-Aug-19 18:33N 37°19' W 009°48'1816.8
2014-Aug-19 17:29N 37°36' W 009°53'  
2014-Aug-17 05:28N 50°35' E 000°16'1415.2
2014-Aug-17 04:33N 50°39' E 000°36'1514.6
2014-Aug-17 03:33N 50°47' E 000°55'2114.1
2014-Aug-17 02:06N 51°00' E 001°21'814.7
2014-Aug-17 01:34N 51°05' E 001°31'1615.6
2014-Aug-17 00:34N 51°16' E 001°50'1313.2
2014-Aug-16 23:33N 51°23' E 002°07'1414.1
2014-Aug-16 22:33N 51°23' E 002°29'1312.8
2014-Aug-16 21:33N 51°22' E 002°50'1313.4
2014-Aug-16 20:33N 51°24' E 003°11'1515.2
2014-Aug-16 19:33N 51°26' E 003°35'8 7.6
2014-Aug-16 18:33N 51°22' E 003°46'1010.4
2014-Aug-16 17:33N 51°26' E 004°01'8 8.4
2014-Aug-16 16:33N 51°22' E 004°13'3 2.9
2014-Aug-16 15:34N 51°21' E 004°17'1 0.2
2014-Aug-16 11:31N 51°22' E 004°17'0 0.0
2014-Aug-16 10:33N 51°22' E 004°17'0 0.0
2014-Aug-16 09:25N 51°22' E 004°17'0 0.0
2014-Aug-16 08:19N 51°22' E 004°17'0 0.0
2014-Aug-16 07:22N 51°22' E 004°17'0 0.0
2014-Aug-16 06:31N 51°22' E 004°17'0 0.0
2014-Aug-16 05:16N 51°22' E 004°17'0 0.0
2014-Aug-16 04:16N 51°22' E 004°17'0 0.0
2014-Aug-16 03:25N 51°22' E 004°17'0 0.0
2014-Aug-16 00:28N 51°22' E 004°17'0 0.0
2014-Aug-15 23:16N 51°22' E 004°17'0 0.0
2014-Aug-15 19:28N 51°22' E 004°17'0 0.0
2014-Aug-15 16:25N 51°22' E 004°17'0 0.0
2014-Aug-15 15:28N 51°22' E 004°17'0 0.0
2014-Aug-15 14:23N 51°22' E 004°17'0 0.0
2014-Aug-15 12:31N 51°22' E 004°17'0 0.0
2014-Aug-15 11:22N 51°22' E 004°17'0 0.0
2014-Aug-15 10:33N 51°22' E 004°17'0 0.0
2014-Aug-15 09:33N 51°22' E 004°17'0 0.2
2014-Aug-15 08:33N 51°22' E 004°17'1 0.8
2014-Aug-15 07:34N 51°21' E 004°17'3 2.6
2014-Aug-15 06:33N 51°22' E 004°13'9 9.2
2014-Aug-15 05:34N 51°26' E 004°00'1111.2
2014-Aug-15 04:33N 51°23' E 003°43'1110.8
2014-Aug-15 03:33N 51°25' E 003°26'1816.5
2014-Aug-15 02:27N 51°23' E 002°57'1112.4
2014-Aug-15 01:33N 51°22' E 002°39'3 2.5
2014-Aug-15 00:27N 51°24' E 002°36'0 0.0
2014-Aug-14 23:32N 51°24' E 002°36'0 0.0
2014-Aug-14 22:33N 51°24' E 002°36'0 0.0
2014-Aug-14 21:33N 51°24' E 002°36'0 0.1
2014-Aug-14 20:30N 51°24' E 002°36'0 0.1
2014-Aug-14 19:33N 51°24' E 002°36'0 0.0
2014-Aug-14 18:33N 51°24' E 002°36'0 0.0
2014-Aug-14 17:32N 51°24' E 002°36'0 0.0
2014-Aug-14 16:33N 51°24' E 002°36'0 0.0
2014-Aug-14 15:33N 51°24' E 002°36'0 0.0
2014-Aug-14 14:33N 51°24' E 002°36'0 0.0
2014-Aug-14 13:33N 51°24' E 002°36'0 0.2
2014-Aug-14 12:30N 51°24' E 002°36'0 0.0
2014-Aug-14 11:32N 51°24' E 002°36'0 0.0
2014-Aug-14 10:32N 51°24' E 002°36'0 0.0
2014-Aug-14 09:32N 51°24' E 002°36'0 0.0
2014-Aug-14 08:33N 51°24' E 002°36'0 0.1
2014-Aug-14 07:29N 51°24' E 002°36'0 0.1
2014-Aug-14 06:33N 51°24' E 002°36'0 0.1
2014-Aug-14 05:32N 51°24' E 002°36'0 0.0
2014-Aug-14 04:32N 51°24' E 002°36'0 0.0
2014-Aug-14 03:33N 51°24' E 002°36'0 0.0
2014-Aug-14 02:32N 51°24' E 002°36'0 0.1
2014-Aug-14 01:32N 51°24' E 002°36'0 0.1
2014-Aug-14 00:33N 51°24' E 002°36'0 0.1
2014-Aug-13 23:33N 51°24' E 002°36'0 0.0
2014-Aug-13 22:33N 51°24' E 002°36'0 0.0
2014-Aug-13 21:18N 51°24' E 002°36'0 0.2
2014-Aug-13 20:21N 51°24' E 002°36'0 0.2
2014-Aug-13 19:33N 51°24' E 002°36'0 0.0
2014-Aug-13 18:30N 51°24' E 002°36'0 0.0
2014-Aug-13 17:33N 51°24' E 002°36'0 0.0
2014-Aug-13 16:30N 51°24' E 002°36'0 0.0
2014-Aug-13 15:33N 51°24' E 002°36'0 0.0
2014-Aug-13 14:33N 51°24' E 002°36'0 0.1
2014-Aug-13 13:33N 51°24' E 002°36'0 0.1
2014-Aug-13 12:30N 51°24' E 002°36'0 0.2
2014-Aug-13 11:33N 51°24' E 002°36'0 0.0
2014-Aug-13 10:33N 51°24' E 002°36'0 0.0
2014-Aug-13 09:33N 51°24' E 002°36'0 0.0
2014-Aug-13 08:33N 51°24' E 002°36'0 0.2
2014-Aug-13 07:31N 51°24' E 002°36'0 0.1
2014-Aug-13 06:33N 51°24' E 002°36'0 0.0
2014-Aug-13 05:31N 51°24' E 002°36'0 0.0
2014-Aug-13 04:30N 51°24' E 002°36'0 0.0
2014-Aug-13 03:30N 51°24' E 002°36'0 0.0
2014-Aug-13 02:33N 51°24' E 002°36'0 0.0
2014-Aug-13 01:32N 51°24' E 002°36'0 0.0
2014-Aug-13 00:33N 51°24' E 002°36'0 0.2
2014-Aug-12 23:32N 51°24' E 002°36'0 0.1
2014-Aug-12 22:32N 51°24' E 002°36'0 0.0
2014-Aug-12 21:32N 51°24' E 002°36'0 0.2
2014-Aug-12 20:32N 51°24' E 002°36'0 0.2
2014-Aug-12 19:32N 51°24' E 002°36'0 0.0
2014-Aug-12 18:32N 51°24' E 002°36'0 0.0
2014-Aug-12 17:33N 51°24' E 002°36'0 0.0
2014-Aug-12 16:32N 51°24' E 002°36'0 0.0
2014-Aug-12 15:32N 51°24' E 002°36'0 0.0
2014-Aug-12 14:33N 51°24' E 002°36'0 0.0
2014-Aug-12 13:32N 51°24' E 002°36'0 0.0
2014-Aug-12 12:33N 51°24' E 002°36'0 0.0
2014-Aug-12 11:33N 51°24' E 002°36'0 0.2
2014-Aug-12 10:33N 51°24' E 002°36'0 0.0
2014-Aug-12 09:32N 51°24' E 002°36'0 0.0
2014-Aug-12 08:33N 51°24' E 002°36'  
Track history (hours):
 
Tides and Currents Weather Stations Pressure Air Temp Water Temp Dewpoint Dewpoint Depression Visibility Wind Speed Wind Dir Waves Ship Positions

Gas Snapper

Last reported at 2014-Aug-22 08:33 UTC. Time now 2014-Aug-22 09:58 UTC.
Position N 37°30' E 010°41'.

Length 174 m; draft 7.3 m.

Type: Ship (hazmat cat D). MMSI: 538003911.

Date/timePositionNaut miles runAvg speedWind from/ knotsBaromVisibWave heightAir tempDewpointWater temp
2014-Aug-22 08:33N 37°30' E 010°41'1716.7
2014-Aug-22 07:33N 37°34' E 010°21'1816.8
2014-Aug-22 06:30N 37°34' E 009°58'1616.7
2014-Aug-22 05:34N 37°35' E 009°39'1717.0
2014-Aug-22 04:34N 37°36' E 009°17'1716.9
2014-Aug-22 03:32N 37°37' E 008°56'1716.6
2014-Aug-22 02:31N 37°38' E 008°34'21116.2
2014-Aug-21 13:29N 37°08' E 004°12'3316.5
2014-Aug-21 11:31N 37°03' E 003°31'2016.7
2014-Aug-21 10:18N 36°60' E 003°06'1216.1
2014-Aug-21 09:33N 36°59' E 002°51'1515.3
2014-Aug-21 08:33N 36°57' E 002°32'3316.2
2014-Aug-21 06:33N 36°51' E 001°52'1716.8
2014-Aug-21 05:31N 36°49' E 001°31'1616.9
2014-Aug-21 04:33N 36°46' E 001°10'1716.6
2014-Aug-21 03:33N 36°44' E 000°50'1616.5
2014-Aug-21 02:33N 36°41' E 000°30'1717.3
2014-Aug-21 01:33N 36°38' E 000°09'1817.8
2014-Aug-21 00:33N 36°36' W 000°14'1717.4
2014-Aug-20 23:34N 36°34' W 000°35'1717.0
2014-Aug-20 22:34N 36°31' W 000°56'1716.9
2014-Aug-20 21:33N 36°28' W 001°17'1816.4
2014-Aug-20 20:29N 36°25' W 001°38'1616.6
2014-Aug-20 19:32N 36°23' W 001°58'1616.1
2014-Aug-20 18:34N 36°21' W 002°17'1616.4
2014-Aug-20 17:33N 36°19' W 002°37'12917.6
2014-Aug-20 10:16N 35°59' W 005°15'20416.1
2014-Aug-19 21:33N 36°34' W 009°25'1716.8
2014-Aug-19 20:33N 36°46' W 009°38'1816.7
2014-Aug-19 19:29N 37°03' W 009°44'1616.7
2014-Aug-19 18:33N 37°19' W 009°48'1816.8
2014-Aug-19 17:29N 37°36' W 009°53'  
2014-Aug-17 05:28N 50°35' E 000°16'1415.2
2014-Aug-17 04:33N 50°39' E 000°36'1514.6
2014-Aug-17 03:33N 50°47' E 000°55'2114.1
2014-Aug-17 02:06N 51°00' E 001°21'814.7
2014-Aug-17 01:34N 51°05' E 001°31'1615.6
2014-Aug-17 00:34N 51°16' E 001°50'1313.2
2014-Aug-16 23:33N 51°23' E 002°07'1414.1
2014-Aug-16 22:33N 51°23' E 002°29'1312.8
2014-Aug-16 21:33N 51°22' E 002°50'1313.4
2014-Aug-16 20:33N 51°24' E 003°11'1515.2
2014-Aug-16 19:33N 51°26' E 003°35'8 7.6
2014-Aug-16 18:33N 51°22' E 003°46'1010.4
2014-Aug-16 17:33N 51°26' E 004°01'8 8.4
2014-Aug-16 16:33N 51°22' E 004°13'3 2.9
2014-Aug-16 15:34N 51°21' E 004°17'1 0.2
2014-Aug-16 11:31N 51°22' E 004°17'0 0.0
2014-Aug-16 10:33N 51°22' E 004°17'0 0.0
2014-Aug-16 09:25N 51°22' E 004°17'0 0.0
2014-Aug-16 08:19N 51°22' E 004°17'0 0.0
2014-Aug-16 07:22N 51°22' E 004°17'0 0.0
2014-Aug-16 06:31N 51°22' E 004°17'0 0.0
2014-Aug-16 05:16N 51°22' E 004°17'0 0.0
2014-Aug-16 04:16N 51°22' E 004°17'0 0.0
2014-Aug-16 03:25N 51°22' E 004°17'0 0.0
2014-Aug-16 00:28N 51°22' E 004°17'0 0.0
2014-Aug-15 23:16N 51°22' E 004°17'0 0.0
2014-Aug-15 19:28N 51°22' E 004°17'0 0.0
2014-Aug-15 16:25N 51°22' E 004°17'0 0.0
2014-Aug-15 15:28N 51°22' E 004°17'0 0.0
2014-Aug-15 14:23N 51°22' E 004°17'0 0.0
2014-Aug-15 12:31N 51°22' E 004°17'0 0.0
2014-Aug-15 11:22N 51°22' E 004°17'0 0.0
2014-Aug-15 10:33N 51°22' E 004°17'0 0.0
2014-Aug-15 09:33N 51°22' E 004°17'0 0.2
2014-Aug-15 08:33N 51°22' E 004°17'1 0.8
2014-Aug-15 07:34N 51°21' E 004°17'3 2.6
2014-Aug-15 06:33N 51°22' E 004°13'9 9.2
2014-Aug-15 05:34N 51°26' E 004°00'1111.2
2014-Aug-15 04:33N 51°23' E 003°43'1110.8
2014-Aug-15 03:33N 51°25' E 003°26'1816.5
2014-Aug-15 02:27N 51°23' E 002°57'1112.4
2014-Aug-15 01:33N 51°22' E 002°39'3 2.5
2014-Aug-15 00:27N 51°24' E 002°36'0 0.0
2014-Aug-14 23:32N 51°24' E 002°36'0 0.0
2014-Aug-14 22:33N 51°24' E 002°36'0 0.0
2014-Aug-14 21:33N 51°24' E 002°36'0 0.1
2014-Aug-14 20:30N 51°24' E 002°36'0 0.1
2014-Aug-14 19:33N 51°24' E 002°36'0 0.0
2014-Aug-14 18:33N 51°24' E 002°36'0 0.0
2014-Aug-14 17:32N 51°24' E 002°36'0 0.0
2014-Aug-14 16:33N 51°24' E 002°36'0 0.0
2014-Aug-14 15:33N 51°24' E 002°36'0 0.0
2014-Aug-14 14:33N 51°24' E 002°36'0 0.0
2014-Aug-14 13:33N 51°24' E 002°36'0 0.2
2014-Aug-14 12:30N 51°24' E 002°36'0 0.0
2014-Aug-14 11:32N 51°24' E 002°36'0 0.0
2014-Aug-14 10:32N 51°24' E 002°36'0 0.0
2014-Aug-14 09:32N 51°24' E 002°36'0 0.0
2014-Aug-14 08:33N 51°24' E 002°36'0 0.1
2014-Aug-14 07:29N 51°24' E 002°36'0 0.1
2014-Aug-14 06:33N 51°24' E 002°36'0 0.1
2014-Aug-14 05:32N 51°24' E 002°36'0 0.0
2014-Aug-14 04:32N 51°24' E 002°36'0 0.0
2014-Aug-14 03:33N 51°24' E 002°36'0 0.0
2014-Aug-14 02:32N 51°24' E 002°36'0 0.1
2014-Aug-14 01:32N 51°24' E 002°36'0 0.1
2014-Aug-14 00:33N 51°24' E 002°36'0 0.1
2014-Aug-13 23:33N 51°24' E 002°36'0 0.0
2014-Aug-13 22:33N 51°24' E 002°36'0 0.0
2014-Aug-13 21:18N 51°24' E 002°36'0 0.2
2014-Aug-13 20:21N 51°24' E 002°36'0 0.2
2014-Aug-13 19:33N 51°24' E 002°36'0 0.0
2014-Aug-13 18:30N 51°24' E 002°36'0 0.0
2014-Aug-13 17:33N 51°24' E 002°36'0 0.0
2014-Aug-13 16:30N 51°24' E 002°36'0 0.0
2014-Aug-13 15:33N 51°24' E 002°36'0 0.0
2014-Aug-13 14:33N 51°24' E 002°36'0 0.1
2014-Aug-13 13:33N 51°24' E 002°36'0 0.1
2014-Aug-13 12:30N 51°24' E 002°36'0 0.2
2014-Aug-13 11:33N 51°24' E 002°36'0 0.0
2014-Aug-13 10:33N 51°24' E 002°36'0 0.0
2014-Aug-13 09:33N 51°24' E 002°36'0 0.0
2014-Aug-13 08:33N 51°24' E 002°36'0 0.2
2014-Aug-13 07:31N 51°24' E 002°36'0 0.1
2014-Aug-13 06:33N 51°24' E 002°36'0 0.0
2014-Aug-13 05:31N 51°24' E 002°36'0 0.0
2014-Aug-13 04:30N 51°24' E 002°36'0 0.0
2014-Aug-13 03:30N 51°24' E 002°36'0 0.0
2014-Aug-13 02:33N 51°24' E 002°36'0 0.0
2014-Aug-13 01:32N 51°24' E 002°36'0 0.0
2014-Aug-13 00:33N 51°24' E 002°36'0 0.2
2014-Aug-12 23:32N 51°24' E 002°36'0 0.1
2014-Aug-12 22:32N 51°24' E 002°36'0 0.0
2014-Aug-12 21:32N 51°24' E 002°36'0 0.2
2014-Aug-12 20:32N 51°24' E 002°36'0 0.2
2014-Aug-12 19:32N 51°24' E 002°36'0 0.0
2014-Aug-12 18:32N 51°24' E 002°36'0 0.0
2014-Aug-12 17:33N 51°24' E 002°36'0 0.0
2014-Aug-12 16:32N 51°24' E 002°36'0 0.0
2014-Aug-12 15:32N 51°24' E 002°36'0 0.0
2014-Aug-12 14:33N 51°24' E 002°36'0 0.0
2014-Aug-12 13:32N 51°24' E 002°36'0 0.0
2014-Aug-12 12:33N 51°24' E 002°36'0 0.0
2014-Aug-12 11:33N 51°24' E 002°36'0 0.2
2014-Aug-12 10:33N 51°24' E 002°36'0 0.0
2014-Aug-12 09:32N 51°24' E 002°36'0 0.0
2014-Aug-12 08:33N 51°24' E 002°36'  

Dump ship's entire track history